createdAt,value
2024-02-08T00:00:47.893Z,9.47
2024-02-08T00:05:51.523Z,9.55
2024-02-08T00:10:56.531Z,9.66
2024-02-08T00:16:00.425Z,9.67
2024-02-08T00:21:04.037Z,9.58
2024-02-08T00:26:09.268Z,9.55
2024-02-08T00:31:12.893Z,9.54
2024-02-08T00:36:16.548Z,9.58
2024-02-08T00:41:24.420Z,9.52
2024-02-08T00:46:27.983Z,9.52
2024-02-08T00:51:32.462Z,9.54
2024-02-08T00:56:37.899Z,9.67
2024-02-08T01:01:42.274Z,9.71
2024-02-08T01:06:46.142Z,9.71
2024-02-08T01:11:51.117Z,9.82
2024-02-08T01:16:55.487Z,9.80
2024-02-08T01:21:59.265Z,9.78
2024-02-08T01:27:05.422Z,9.82
2024-02-08T01:32:09.243Z,9.68
2024-02-08T01:37:14.321Z,9.74
2024-02-08T01:42:19.292Z,9.96
2024-02-08T01:47:23.096Z,9.74
2024-02-08T01:52:26.751Z,9.75
2024-02-08T01:57:31.974Z,9.85
2024-02-08T02:02:37.353Z,9.86
2024-02-08T02:07:40.918Z,9.91
2024-02-08T02:12:46.876Z,9.92
2024-02-08T02:17:50.443Z,9.96
2024-02-08T02:22:55.406Z,9.98
2024-02-08T02:28:01.833Z,10.04
2024-02-08T02:33:07.208Z,10.05
2024-02-08T02:38:14.546Z,10.16
2024-02-08T02:43:19.025Z,10.16
2024-02-08T02:48:22.832Z,10.22
2024-02-08T02:53:30.509Z,10.25
2024-02-08T02:58:36.189Z,10.20
2024-02-08T03:03:41.667Z,10.18
2024-02-08T03:08:48.391Z,10.22
2024-02-08T03:13:52.229Z,10.26
2024-02-08T03:18:58.113Z,10.40
2024-02-08T03:24:03.247Z,10.49
2024-02-08T03:29:06.985Z,10.47
2024-02-08T03:34:10.613Z,10.57
2024-02-08T03:39:26.875Z,10.60
2024-02-08T03:44:32.190Z,10.66
2024-02-08T03:49:36.519Z,10.73
2024-02-08T03:54:42.280Z,10.80
2024-02-08T03:59:45.932Z,10.84
2024-02-08T04:04:51.818Z,10.77
2024-02-08T04:09:58.057Z,10.84
2024-02-08T04:15:21.629Z,10.63
2024-02-08T04:20:42.566Z,10.65
2024-02-08T04:26:05.073Z,10.85
2024-02-08T04:31:28.339Z,10.80
2024-02-08T04:36:49.411Z,10.94
2024-02-08T04:42:11.978Z,10.83
2024-02-08T04:47:32.815Z,11.01
2024-02-08T04:52:53.913Z,11.03
2024-02-08T04:58:27.354Z,11.15
2024-02-08T05:03:23.990Z,11.19
2024-02-08T05:08:27.523Z,11.23
2024-02-08T05:13:32.434Z,11.22
2024-02-08T05:18:38.054Z,11.12
2024-02-08T05:23:42.942Z,11.15
2024-02-08T05:28:49.491Z,10.98
2024-02-08T05:33:53.585Z,11.12
2024-02-08T05:38:57.988Z,11.21
2024-02-08T05:44:06.403Z,11.23
2024-02-08T05:49:15.285Z,11.33
2024-02-08T05:54:21.865Z,11.41
2024-02-08T05:59:30.510Z,10.94
2024-02-08T06:04:37.071Z,11.35
2024-02-08T06:09:50.271Z,11.40
2024-02-08T06:14:59.680Z,11.54
2024-02-08T06:20:10.228Z,11.61
2024-02-08T06:25:29.048Z,11.60
2024-02-08T06:30:34.468Z,11.70
2024-02-08T06:35:39.975Z,10.87
2024-02-08T06:40:52.745Z,10.99
2024-02-08T06:46:19.256Z,10.88
2024-02-08T06:51:37.123Z,10.89
2024-02-08T06:56:58.700Z,11.08
2024-02-08T07:02:21.353Z,11.35
2024-02-08T07:07:43.416Z,11.71
2024-02-08T07:13:04.391Z,11.87
2024-02-08T07:18:28.096Z,11.82
2024-02-08T07:23:49.096Z,12.07
2024-02-08T07:29:10.352Z,12.10
2024-02-08T07:34:33.196Z,12.20
2024-02-08T07:39:40.553Z,11.72
2024-02-08T07:44:49.659Z,11.81
2024-02-08T07:49:59.559Z,12.05
2024-02-08T07:55:21.359Z,12.21
2024-02-08T08:05:56.644Z,12.32
2024-02-08T08:11:05.101Z,12.33
2024-02-08T08:16:22.844Z,11.88
2024-02-08T08:21:28.811Z,12.07
2024-02-08T08:26:40.272Z,11.44
2024-02-08T08:31:52.693Z,11.75
2024-02-08T08:37:03.898Z,12.05
2024-02-08T08:42:08.162Z,12.21
2024-02-08T08:47:11.746Z,11.78
2024-02-08T08:52:25.187Z,11.94
2024-02-08T08:57:29.290Z,12.20
2024-02-08T09:02:32.868Z,12.87
2024-02-08T09:07:39.174Z,12.37
2024-02-08T09:12:59.684Z,13.03
2024-02-08T09:18:11.174Z,13.02
2024-02-08T09:23:18.915Z,12.84
2024-02-08T09:28:31.097Z,12.80
2024-02-08T09:33:47.025Z,13.13
2024-02-08T09:38:53.060Z,13.47
2024-02-08T09:43:59.288Z,13.58
2024-02-08T09:49:14.216Z,13.27
2024-02-08T09:54:28.582Z,13.30
2024-02-08T10:00:01.364Z,13.86
2024-02-08T10:05:42.547Z,13.68
2024-02-08T10:11:01.273Z,13.76
2024-02-08T10:16:14.020Z,14.08
2024-02-08T10:21:19.327Z,13.52
2024-02-08T10:26:28.312Z,14.32
2024-02-08T10:31:38.723Z,14.08
2024-02-08T10:36:47.185Z,14.77
2024-02-08T10:42:00.155Z,15.52
2024-02-08T10:47:09.287Z,15.48
2024-02-08T10:52:17.843Z,15.74
2024-02-08T10:57:41.442Z,15.70
2024-02-08T11:02:50.932Z,16.04
2024-02-08T11:07:55.449Z,15.58
2024-02-08T11:13:03.645Z,15.68
2024-02-08T11:18:12.309Z,15.52
2024-02-08T11:23:24.701Z,15.82
2024-02-08T11:28:45.096Z,16.08
2024-02-08T11:33:51.128Z,15.29
2024-02-08T11:38:59.297Z,15.73
2024-02-08T11:44:07.107Z,15.83
2024-02-08T11:49:17.081Z,15.46
2024-02-08T11:54:28.927Z,15.69
2024-02-08T11:59:37.132Z,15.24
2024-02-08T12:04:40.961Z,15.52
2024-02-08T12:09:45.283Z,15.52
2024-02-08T12:14:55.654Z,15.50
2024-02-08T12:20:01.417Z,15.03
2024-02-08T12:25:09.097Z,15.13
2024-02-08T12:30:15.030Z,14.75
2024-02-08T12:35:26.480Z,15.32
2024-02-08T12:40:34.067Z,15.18
2024-02-08T12:45:40.316Z,15.28
2024-02-08T12:50:44.387Z,15.42
2024-02-08T12:55:49.130Z,15.25
2024-02-08T13:01:05.906Z,15.03
2024-02-08T13:06:14.030Z,15.37
2024-02-08T13:11:21.975Z,14.66
2024-02-08T13:16:27.040Z,14.91
2024-02-08T13:21:30.612Z,15.08
2024-02-08T13:26:37.608Z,14.90
2024-02-08T13:31:45.459Z,14.77
2024-02-08T13:36:49.148Z,15.07
2024-02-08T13:41:53.010Z,14.71
2024-02-08T13:46:58.139Z,14.64
2024-02-08T13:52:02.731Z,14.67
2024-02-08T13:57:24.791Z,14.58
2024-02-08T14:02:30.291Z,14.29
2024-02-08T14:07:34.166Z,14.33
2024-02-08T14:12:46.168Z,14.20
2024-02-08T14:17:56.418Z,14.23
2024-02-08T14:23:02.096Z,14.47
2024-02-08T14:28:10.920Z,14.50
2024-02-08T14:33:20.422Z,14.39
2024-02-08T14:38:24.201Z,14.22
2024-02-08T14:43:32.904Z,13.48
2024-02-08T14:48:39.530Z,13.44
2024-02-08T14:53:46.006Z,13.34
2024-02-08T14:58:57.973Z,13.50
2024-02-08T15:04:03.580Z,13.33
2024-02-08T15:09:24.357Z,13.14
2024-02-08T15:14:36.809Z,13.16
2024-02-08T15:19:46.791Z,12.96
2024-02-08T15:24:51.303Z,12.70
2024-02-08T15:30:11.958Z,12.09
2024-02-08T15:35:27.616Z,12.40
2024-02-08T15:40:32.510Z,12.52
2024-02-08T15:45:36.222Z,12.21
2024-02-08T15:50:45.230Z,11.57
2024-02-08T15:55:51.056Z,11.84
2024-02-08T16:01:12.137Z,11.53
2024-02-08T16:06:35.371Z,11.36
2024-02-08T16:11:44.155Z,10.92
2024-02-08T16:17:07.206Z,11.10
2024-02-08T16:22:21.570Z,11.15
2024-02-08T16:27:28.929Z,11.03
2024-02-08T16:32:40.366Z,11.16
2024-02-08T16:37:52.753Z,10.92
2024-02-08T16:43:02.950Z,10.95
2024-02-08T16:48:16.158Z,10.98
2024-02-08T16:53:35.379Z,11.01
2024-02-08T16:58:51.917Z,10.93
2024-02-08T17:04:19.179Z,10.69
2024-02-08T17:09:26.464Z,10.73
2024-02-08T17:14:38.286Z,10.64
2024-02-08T17:19:59.658Z,10.63
2024-02-08T17:25:25.404Z,10.54
2024-02-08T17:30:53.161Z,10.34
2024-02-08T17:36:00.473Z,10.49
2024-02-08T17:41:09.981Z,10.34
2024-02-08T17:46:13.983Z,10.36
2024-02-08T17:51:22.819Z,10.31
2024-02-08T17:56:33.111Z,10.12
2024-02-08T18:01:56.151Z,9.99
2024-02-08T18:07:10.671Z,9.84
2024-02-08T18:12:53.728Z,10.32
2024-02-08T18:18:05.990Z,9.94
2024-02-08T18:23:11.255Z,9.67
2024-02-08T18:28:16.272Z,9.83
2024-02-08T18:33:27.867Z,9.97
2024-02-08T18:38:34.755Z,9.83
2024-02-08T18:43:43.703Z,10.11
2024-02-08T18:48:54.673Z,9.59
2024-02-08T18:54:00.514Z,9.61
2024-02-08T18:59:06.518Z,9.93
2024-02-08T19:04:12.194Z,9.67
2024-02-08T19:09:20.479Z,9.52
2024-02-08T19:14:27.851Z,9.68
2024-02-08T19:19:35.440Z,9.85
2024-02-08T19:24:42.717Z,9.40
2024-02-08T19:29:47.880Z,9.65
2024-02-08T19:34:53.104Z,9.54
2024-02-08T19:39:57.047Z,9.70
2024-02-08T19:45:13.044Z,9.52
2024-02-08T19:50:22.703Z,9.77
2024-02-08T19:55:34.781Z,9.36
2024-02-08T20:00:46.532Z,9.63
2024-02-08T20:06:12.577Z,9.16
2024-02-08T20:11:20.691Z,9.48
2024-02-08T20:16:28.626Z,9.47
2024-02-08T20:21:35.409Z,9.59
2024-02-08T20:26:49.268Z,9.10
2024-02-08T20:31:56.189Z,9.34
2024-02-08T20:37:02.159Z,9.69
2024-02-08T20:42:13.440Z,9.17
2024-02-08T20:47:25.696Z,9.66
2024-02-08T20:52:35.442Z,9.59
2024-02-08T20:57:41.231Z,9.62
2024-02-08T21:02:48.087Z,9.67
2024-02-08T21:07:51.825Z,9.88
2024-02-08T21:13:01.090Z,9.78
2024-02-08T21:18:08.204Z,9.62
2024-02-08T21:23:12.104Z,9.84
2024-02-08T21:28:19.107Z,9.35
2024-02-08T21:33:24.480Z,9.29
2024-02-08T21:38:30.128Z,9.35
2024-02-08T21:43:34.779Z,9.50
2024-02-08T21:48:42.410Z,9.61
2024-02-08T21:53:46.274Z,9.56
2024-02-08T21:58:50.087Z,9.55
2024-02-08T22:03:55.709Z,9.11
2024-02-08T22:08:59.380Z,9.86
2024-02-08T22:14:03.236Z,8.92
2024-02-08T22:19:09.162Z,10.21
2024-02-08T22:24:13.938Z,9.31
2024-02-08T22:29:17.758Z,9.54
2024-02-08T22:34:22.872Z,9.16
2024-02-08T22:39:26.722Z,9.30
2024-02-08T22:44:30.906Z,9.20
2024-02-08T22:49:36.463Z,9.59
2024-02-08T22:54:59.006Z,9.71
2024-02-08T23:00:31.810Z,8.98
2024-02-08T23:05:40.967Z,9.04
2024-02-08T23:10:44.830Z,9.15
2024-02-08T23:15:50.503Z,8.86
2024-02-08T23:21:14.239Z,9.35
2024-02-08T23:26:20.575Z,9.19
2024-02-08T23:31:25.813Z,9.66
2024-02-08T23:36:34.114Z,9.48
2024-02-08T23:41:38.277Z,8.87
2024-02-08T23:46:43.377Z,9.15
2024-02-08T23:51:49.286Z,9.23
2024-02-08T23:56:56.569Z,9.09
